createdAt,value
2022-12-07T00:00:06.707Z,92.36
2022-12-07T00:01:06.711Z,92.46
2022-12-07T00:02:06.788Z,92.57
2022-12-07T00:03:06.832Z,92.67
2022-12-07T00:04:06.711Z,93.04
2022-12-07T00:05:06.721Z,93.24
2022-12-07T00:06:06.638Z,92.83
2022-12-07T00:07:06.836Z,92.32
2022-12-07T00:08:06.765Z,92.00
2022-12-07T00:09:06.742Z,91.80
2022-12-07T00:10:06.575Z,91.34
2022-12-07T00:11:06.564Z,90.83
2022-12-07T00:12:06.668Z,90.56
2022-12-07T00:13:06.560Z,90.87
2022-12-07T00:14:06.551Z,90.45
2022-12-07T00:15:06.546Z,89.25
2022-12-07T00:16:06.558Z,89.56
2022-12-07T00:17:06.509Z,90.08
2022-12-07T00:18:06.514Z,90.70
2022-12-07T00:19:06.474Z,90.60
2022-12-07T00:20:06.498Z,91.05
2022-12-07T00:21:06.464Z,91.47
2022-12-07T00:22:06.427Z,91.57
2022-12-07T00:23:06.441Z,91.57
2022-12-07T00:24:06.430Z,91.78
2022-12-07T00:25:06.445Z,91.57
2022-12-07T00:26:06.411Z,91.42
2022-12-07T00:27:06.386Z,91.32
2022-12-07T00:28:06.431Z,91.42
2022-12-07T00:29:06.484Z,91.74
2022-12-07T00:30:06.414Z,92.15
2022-12-07T00:31:06.391Z,92.25
2022-12-07T00:32:06.421Z,92.67
2022-12-07T00:33:06.462Z,92.67
2022-12-07T00:34:06.389Z,92.46
2022-12-07T00:35:06.392Z,92.46
2022-12-07T00:36:06.310Z,92.46
2022-12-07T00:37:06.636Z,91.90
2022-12-07T00:38:06.323Z,91.59
2022-12-07T00:39:06.356Z,91.49
2022-12-07T00:40:06.280Z,90.77
2022-12-07T00:41:06.288Z,90.56
2022-12-07T00:42:06.293Z,90.45
2022-12-07T00:43:06.265Z,90.45
2022-12-07T00:44:06.286Z,90.45
2022-12-07T00:45:06.241Z,90.87
2022-12-07T00:46:06.234Z,91.38
2022-12-07T00:47:07.069Z,91.69
2022-12-07T00:48:06.196Z,91.49
2022-12-07T00:49:06.202Z,90.97
2022-12-07T00:50:06.443Z,90.45
2022-12-07T00:51:06.115Z,90.77
2022-12-07T00:52:06.123Z,91.07
2022-12-07T00:53:06.090Z,90.66
2022-12-07T00:54:06.073Z,90.45
2022-12-07T00:55:06.070Z,90.31
2022-12-07T00:56:06.060Z,90.41
2022-12-07T00:57:06.083Z,90.83
2022-12-07T00:58:06.026Z,91.13
2022-12-07T00:59:06.225Z,90.93
2022-12-07T01:00:06.019Z,91.07
2022-12-07T01:01:06.035Z,91.59
2022-12-07T01:02:05.977Z,92.00
2022-12-07T01:03:06.052Z,92.42
2022-12-07T01:04:05.955Z,92.93
2022-12-07T01:05:05.972Z,93.39
2022-12-07T01:06:05.935Z,93.76
2022-12-07T01:07:05.983Z,94.18
2022-12-07T01:08:06.081Z,94.69
2022-12-07T01:09:05.937Z,94.90
2022-12-07T01:10:05.882Z,95.10
2022-12-07T01:11:05.899Z,95.42
2022-12-07T01:12:05.899Z,95.62
2022-12-07T01:13:05.865Z,95.62
2022-12-07T01:14:05.860Z,95.42
2022-12-07T01:15:05.880Z,95.31
2022-12-07T01:16:05.822Z,95.31
2022-12-07T01:17:05.918Z,95.10
2022-12-07T01:18:05.839Z,94.90
2022-12-07T01:19:05.924Z,94.90
2022-12-07T01:20:05.876Z,95.00
2022-12-07T01:21:05.797Z,95.00
2022-12-07T01:22:05.783Z,94.90
2022-12-07T01:23:05.813Z,94.48
2022-12-07T01:24:05.752Z,94.28
2022-12-07T01:25:05.765Z,94.07
2022-12-07T01:26:05.727Z,93.97
2022-12-07T01:27:05.711Z,94.07
2022-12-07T01:28:05.721Z,94.07
2022-12-07T01:29:05.707Z,93.97
2022-12-07T01:30:05.669Z,93.97
2022-12-07T01:31:05.701Z,93.97
2022-12-07T01:32:05.662Z,93.87
2022-12-07T01:33:05.680Z,93.87
2022-12-07T01:34:05.656Z,93.76
2022-12-07T01:35:05.687Z,93.87
2022-12-07T01:36:05.645Z,93.97
2022-12-07T01:37:05.633Z,93.97
2022-12-07T01:38:05.576Z,93.87
2022-12-07T01:39:05.619Z,93.55
2022-12-07T01:40:05.562Z,92.93
2022-12-07T01:41:05.557Z,92.63
2022-12-07T01:42:05.567Z,92.58
2022-12-07T01:43:05.539Z,92.58
2022-12-07T01:44:05.509Z,92.48
2022-12-07T01:45:05.532Z,92.17
2022-12-07T01:46:05.568Z,91.86
2022-12-07T01:47:05.546Z,91.82
2022-12-07T01:48:05.496Z,91.92
2022-12-07T01:49:05.466Z,92.33
2022-12-07T01:50:05.443Z,92.44
2022-12-07T01:51:05.449Z,91.92
2022-12-07T01:52:05.460Z,91.61
2022-12-07T01:53:05.425Z,91.71
2022-12-07T01:54:05.432Z,92.02
2022-12-07T01:55:05.416Z,92.33
2022-12-07T01:56:05.370Z,92.74
2022-12-07T01:57:05.387Z,93.05
2022-12-07T01:58:05.341Z,93.05
2022-12-07T01:59:05.394Z,92.54
2022-12-07T02:00:05.602Z,92.38
2022-12-07T02:01:05.358Z,92.27
2022-12-07T02:02:05.376Z,92.58
2022-12-07T02:03:05.359Z,92.99
2022-12-07T02:04:05.325Z,93.20
2022-12-07T02:05:05.278Z,93.20
2022-12-07T02:06:05.296Z,93.30
2022-12-07T02:07:05.268Z,93.30
2022-12-07T02:08:05.299Z,93.45
2022-12-07T02:09:05.277Z,93.35
2022-12-07T02:10:05.212Z,93.14
2022-12-07T02:11:05.216Z,92.79
2022-12-07T02:12:05.212Z,92.68
2022-12-07T02:13:05.188Z,92.68
2022-12-07T02:14:05.185Z,92.79
2022-12-07T02:15:05.195Z,92.99
2022-12-07T02:16:05.238Z,92.99
2022-12-07T02:17:05.128Z,92.79
2022-12-07T02:18:05.140Z,92.85
2022-12-07T02:19:05.102Z,92.85
2022-12-07T02:20:05.185Z,93.47
2022-12-07T02:21:05.125Z,94.54
2022-12-07T02:22:05.129Z,94.90
2022-12-07T02:23:05.071Z,95.42
2022-12-07T02:24:05.121Z,95.36
2022-12-07T02:25:05.044Z,95.77
2022-12-07T02:26:05.080Z,96.80
2022-12-07T02:27:05.058Z,97.53
2022-12-07T02:28:05.027Z,97.74
2022-12-07T02:29:04.998Z,97.38
2022-12-07T02:30:05.395Z,97.28
2022-12-07T02:31:05.082Z,97.28
2022-12-07T02:32:05.018Z,97.22
2022-12-07T02:33:04.968Z,97.01
2022-12-07T02:34:04.972Z,96.91
2022-12-07T02:35:04.937Z,97.01
2022-12-07T02:36:04.937Z,97.11
2022-12-07T02:37:04.938Z,97.01
2022-12-07T02:38:04.912Z,96.59
2022-12-07T02:39:04.912Z,96.29
2022-12-07T02:40:05.104Z,95.98
2022-12-07T02:41:04.865Z,95.87
2022-12-07T02:42:04.907Z,95.77
2022-12-07T02:43:04.890Z,95.56
2022-12-07T02:44:04.850Z,95.77
2022-12-07T02:45:04.874Z,95.46
2022-12-07T02:46:04.906Z,95.36
2022-12-07T02:47:04.921Z,95.25
2022-12-07T02:48:04.815Z,94.94
2022-12-07T02:49:04.779Z,94.94
2022-12-07T02:50:05.018Z,95.04
2022-12-07T02:51:04.757Z,95.04
2022-12-07T02:52:04.772Z,95.15
2022-12-07T02:53:04.779Z,95.25
2022-12-07T02:54:04.737Z,95.36
2022-12-07T02:55:04.755Z,94.94
2022-12-07T02:56:04.719Z,94.73
2022-12-07T02:57:04.687Z,94.84
2022-12-07T02:58:04.758Z,95.15
2022-12-07T02:59:04.702Z,95.36
2022-12-07T03:00:05.028Z,95.71
2022-12-07T03:01:04.643Z,95.92
2022-12-07T03:02:04.696Z,96.23
2022-12-07T03:03:04.732Z,96.85
2022-12-07T03:04:04.626Z,97.88
2022-12-07T03:05:04.637Z,98.55
2022-12-07T03:06:04.607Z,99.07
2022-12-07T03:07:04.597Z,99.38
2022-12-07T03:08:04.657Z,99.73
2022-12-07T03:09:04.553Z,99.94
2022-12-07T03:10:04.884Z,99.99
2022-12-07T03:11:04.575Z,99.99
2022-12-07T03:12:04.535Z,99.99
2022-12-07T03:13:04.518Z,99.99
2022-12-07T03:14:04.555Z,99.99
2022-12-07T03:15:04.488Z,99.99
2022-12-07T03:16:04.595Z,99.99
2022-12-07T03:17:04.462Z,99.99
2022-12-07T03:18:04.471Z,99.99
2022-12-07T03:19:04.461Z,99.99
2022-12-07T03:20:04.816Z,99.99
2022-12-07T03:21:04.445Z,99.99
2022-12-07T03:22:04.432Z,99.99
2022-12-07T03:23:04.393Z,99.99
2022-12-07T03:24:04.407Z,99.99
2022-12-07T03:25:04.380Z,99.99
2022-12-07T03:26:04.420Z,99.99
2022-12-07T03:27:04.391Z,99.99
2022-12-07T03:28:04.368Z,99.99
2022-12-07T03:29:04.336Z,99.99
2022-12-07T03:30:04.617Z,99.99
2022-12-07T03:31:04.398Z,99.99
2022-12-07T03:32:04.343Z,99.99
2022-12-07T03:33:04.286Z,99.99
2022-12-07T03:34:04.351Z,99.99
2022-12-07T03:35:04.264Z,99.99
2022-12-07T03:36:04.262Z,99.99
2022-12-07T03:37:04.285Z,99.99
2022-12-07T03:38:04.235Z,99.99
2022-12-07T03:39:04.217Z,99.99
2022-12-07T03:40:04.630Z,99.99
2022-12-07T03:41:04.188Z,99.99
2022-12-07T03:42:04.267Z,99.99
2022-12-07T03:43:04.181Z,99.99
2022-12-07T03:44:04.177Z,98.24
2022-12-07T03:45:04.150Z,95.75
2022-12-07T03:46:04.256Z,94.20
2022-12-07T03:47:04.159Z,93.79
2022-12-07T03:48:04.154Z,93.37
2022-12-07T03:49:04.105Z,92.76
2022-12-07T03:50:04.586Z,92.85
2022-12-07T03:51:04.078Z,93.58
2022-12-07T03:52:04.145Z,94.93
2022-12-07T03:53:04.104Z,96.52
2022-12-07T03:54:06.819Z,97.81
2022-12-07T03:55:04.064Z,98.79
2022-12-07T03:56:04.037Z,99.66
2022-12-07T03:57:04.081Z,99.99
2022-12-07T03:58:04.026Z,99.99
2022-12-07T03:59:04.006Z,99.99
2022-12-07T04:00:04.205Z,99.99
2022-12-07T04:01:04.026Z,99.99
2022-12-07T04:02:04.029Z,99.99
2022-12-07T04:03:04.135Z,99.99
2022-12-07T04:04:03.969Z,99.99
2022-12-07T04:05:03.938Z,99.99
2022-12-07T04:06:03.959Z,99.99
2022-12-07T04:07:03.969Z,99.99
2022-12-07T04:08:04.230Z,99.99
2022-12-07T04:09:03.881Z,99.99
2022-12-07T04:10:04.112Z,99.99
2022-12-07T04:11:03.895Z,99.99
2022-12-07T04:12:03.869Z,99.99
2022-12-07T04:13:03.847Z,99.99
2022-12-07T04:14:03.901Z,99.99
2022-12-07T04:15:03.806Z,99.99
2022-12-07T04:16:03.887Z,99.99
2022-12-07T04:17:03.793Z,99.99
2022-12-07T04:18:03.841Z,99.99
2022-12-07T04:19:03.798Z,99.99
2022-12-07T04:20:03.889Z,99.99
2022-12-07T04:21:03.755Z,99.99
2022-12-07T04:22:03.795Z,99.99
2022-12-07T04:23:03.764Z,99.99
2022-12-07T04:24:03.732Z,99.99
2022-12-07T04:25:03.720Z,99.99
2022-12-07T04:26:03.703Z,99.99
2022-12-07T04:27:03.695Z,99.99
2022-12-07T04:28:03.704Z,99.99
2022-12-07T04:29:07.595Z,99.99
2022-12-07T04:30:03.827Z,99.99
2022-12-07T04:31:03.725Z,99.99
2022-12-07T04:32:03.642Z,99.99
2022-12-07T04:33:03.614Z,99.99
2022-12-07T04:34:03.664Z,99.99
2022-12-07T04:35:03.592Z,99.99
2022-12-07T04:36:04.591Z,99.99
2022-12-07T04:37:03.623Z,99.99
2022-12-07T04:38:03.571Z,99.99
2022-12-07T04:39:03.587Z,99.99
2022-12-07T04:40:03.900Z,99.99
2022-12-07T04:41:03.526Z,99.99
2022-12-07T04:42:03.532Z,99.47
2022-12-07T04:43:03.497Z,98.95
2022-12-07T04:44:03.528Z,98.12
2022-12-07T04:45:03.472Z,96.98
2022-12-07T04:46:03.493Z,96.31
2022-12-07T04:47:03.517Z,96.52
2022-12-07T04:48:03.481Z,97.25
2022-12-07T04:49:03.440Z,98.08
2022-12-07T04:50:03.716Z,98.70
2022-12-07T04:51:03.405Z,99.11
2022-12-07T04:52:03.452Z,99.32
2022-12-07T04:53:03.417Z,99.73
2022-12-07T04:54:03.390Z,99.99
2022-12-07T04:55:03.416Z,99.99
2022-12-07T04:56:03.370Z,99.99
2022-12-07T04:57:03.329Z,99.99
2022-12-07T04:58:03.367Z,99.99
2022-12-07T04:59:03.345Z,99.99
2022-12-07T05:00:03.509Z,99.99
2022-12-07T05:01:03.426Z,99.99
2022-12-07T05:02:03.337Z,99.99
2022-12-07T05:03:03.274Z,99.99
2022-12-07T05:04:03.326Z,99.99
2022-12-07T05:05:03.247Z,99.99
2022-12-07T05:06:03.250Z,99.99
2022-12-07T05:07:03.246Z,99.84
2022-12-07T05:08:03.318Z,99.43
2022-12-07T05:09:03.243Z,99.22
2022-12-07T05:10:03.480Z,99.11
2022-12-07T05:11:03.180Z,98.91
2022-12-07T05:12:03.213Z,98.65
2022-12-07T05:13:03.178Z,98.13
2022-12-07T05:14:03.988Z,97.93
2022-12-07T05:15:03.168Z,97.93
2022-12-07T05:16:03.229Z,98.13
2022-12-07T05:17:03.140Z,98.49
2022-12-07T05:18:03.109Z,98.80
2022-12-07T05:19:03.118Z,99.11
2022-12-07T05:20:03.449Z,99.43
2022-12-07T05:21:03.068Z,99.63
2022-12-07T05:22:03.087Z,99.73
2022-12-07T05:23:03.307Z,99.73
2022-12-07T05:24:03.048Z,99.84
2022-12-07T05:25:03.031Z,99.94
2022-12-07T05:26:03.057Z,99.94
2022-12-07T05:27:03.012Z,99.63
2022-12-07T05:28:03.022Z,98.28
2022-12-07T05:29:02.987Z,95.28
2022-12-07T05:30:03.225Z,93.48
2022-12-07T05:31:03.010Z,92.03
2022-12-07T05:32:03.021Z,90.89
2022-12-07T05:33:02.938Z,89.96
2022-12-07T05:34:02.943Z,89.54
2022-12-07T05:35:02.919Z,88.92
2022-12-07T05:36:02.929Z,88.92
2022-12-07T05:37:02.930Z,89.54
2022-12-07T05:38:02.890Z,90.06
2022-12-07T05:39:02.876Z,90.37
2022-12-07T05:40:03.101Z,90.16
2022-12-07T05:41:02.851Z,90.06
2022-12-07T05:42:02.848Z,90.37
2022-12-07T05:43:04.977Z,90.99
2022-12-07T05:44:02.837Z,91.61
2022-12-07T05:45:02.800Z,92.03
2022-12-07T05:46:02.852Z,92.55
2022-12-07T05:47:02.779Z,92.85
2022-12-07T05:48:02.806Z,93.06
2022-12-07T05:49:02.776Z,93.16
2022-12-07T05:50:03.108Z,92.96
2022-12-07T05:51:02.755Z,93.16
2022-12-07T05:52:02.770Z,93.37
2022-12-07T05:53:03.856Z,93.48
2022-12-07T05:54:02.777Z,93.79
2022-12-07T05:55:02.718Z,94.20
2022-12-07T05:56:02.770Z,94.62
2022-12-07T05:57:02.687Z,94.82
2022-12-07T05:58:02.687Z,94.93
2022-12-07T05:59:02.671Z,95.24
2022-12-07T06:00:03.034Z,95.44
2022-12-07T06:01:02.658Z,95.65
2022-12-07T06:02:03.216Z,95.65
2022-12-07T06:03:02.732Z,95.65
2022-12-07T06:04:02.623Z,95.54
2022-12-07T06:05:02.583Z,95.65
2022-12-07T06:06:02.639Z,95.75
2022-12-07T06:07:02.804Z,95.75
2022-12-07T06:08:05.941Z,95.80
2022-12-07T06:09:02.558Z,95.80
2022-12-07T06:10:04.507Z,95.90
2022-12-07T06:12:19.629Z,96.31
2022-12-07T06:13:20.204Z,96.62
2022-12-07T06:14:20.167Z,96.83
2022-12-07T06:15:20.147Z,96.83
2022-12-07T06:16:20.320Z,96.83
2022-12-07T06:17:20.138Z,96.73
2022-12-07T06:18:20.127Z,96.83
2022-12-07T06:19:20.103Z,96.94
2022-12-07T06:20:20.161Z,97.04
2022-12-07T06:21:20.092Z,97.25
2022-12-07T06:22:20.088Z,97.35
2022-12-07T06:23:20.096Z,97.56
2022-12-07T06:24:20.062Z,97.72
2022-12-07T06:25:20.084Z,97.72
2022-12-07T06:26:20.092Z,97.72
2022-12-07T06:27:20.041Z,97.83
2022-12-07T06:28:20.233Z,97.83
2022-12-07T06:29:27.912Z,97.93
2022-12-07T06:30:26.831Z,97.93
2022-12-07T06:31:26.133Z,97.93
2022-12-07T06:32:20.035Z,97.83
2022-12-07T06:33:19.985Z,97.83
2022-12-07T06:34:19.954Z,97.83
2022-12-07T06:35:19.981Z,97.83
2022-12-07T06:36:25.493Z,97.72
2022-12-07T06:37:19.935Z,97.72
2022-12-07T06:38:20.049Z,97.83
2022-12-07T06:39:19.903Z,97.93
2022-12-07T06:40:19.957Z,97.93
2022-12-07T06:41:19.986Z,97.93
2022-12-07T06:42:19.911Z,97.72
2022-12-07T06:43:19.952Z,97.57
2022-12-07T06:44:19.858Z,97.57
2022-12-07T06:45:19.830Z,97.47
2022-12-07T06:46:19.848Z,96.79
2022-12-07T06:48:21.645Z,96.83
2022-12-07T06:49:19.796Z,97.04
2022-12-07T06:50:19.765Z,97.14
2022-12-07T06:51:19.750Z,97.09
2022-12-07T06:52:19.748Z,96.98
2022-12-07T06:53:19.770Z,96.98
2022-12-07T06:54:19.723Z,96.92
2022-12-07T06:55:19.743Z,97.03
2022-12-07T06:56:19.780Z,97.13
2022-12-07T06:57:19.702Z,97.24
2022-12-07T06:58:19.725Z,97.44
2022-12-07T06:59:25.950Z,97.55
2022-12-07T07:00:22.168Z,97.75
2022-12-07T07:01:19.769Z,98.07
2022-12-07T07:02:19.731Z,98.17
2022-12-07T07:03:19.615Z,98.27
2022-12-07T07:04:19.621Z,98.27
2022-12-07T07:05:19.627Z,98.38
2022-12-07T07:06:19.651Z,98.48
2022-12-07T07:07:19.586Z,98.48
2022-12-07T07:08:22.240Z,98.69
2022-12-07T07:09:19.628Z,98.90
2022-12-07T07:10:19.575Z,99.31
2022-12-07T07:11:19.567Z,99.47
2022-12-07T07:12:19.533Z,99.47
2022-12-07T07:13:19.587Z,99.57
2022-12-07T07:14:19.510Z,99.68
2022-12-07T07:15:19.484Z,99.78
2022-12-07T07:16:19.558Z,99.88
2022-12-07T07:17:19.451Z,99.88
2022-12-07T07:18:19.458Z,99.37
2022-12-07T07:19:19.473Z,99.05
2022-12-07T07:20:19.441Z,98.69
2022-12-07T07:21:19.415Z,98.07
2022-12-07T07:22:19.420Z,97.65
2022-12-07T07:23:19.389Z,97.49
2022-12-07T07:24:19.399Z,97.69
2022-12-07T07:25:19.405Z,97.80
2022-12-07T07:26:23.070Z,98.00
2022-12-07T07:27:19.377Z,98.11
2022-12-07T07:28:19.350Z,98.32
2022-12-07T07:29:19.322Z,98.42
2022-12-07T07:30:19.339Z,98.63
2022-12-07T07:31:19.342Z,98.73
2022-12-07T07:32:19.343Z,98.32
2022-12-07T07:33:19.292Z,96.66
2022-12-07T07:34:19.283Z,94.85
2022-12-07T07:35:19.310Z,92.74
2022-12-07T07:36:19.327Z,91.28
2022-12-07T07:37:22.122Z,90.56
2022-12-07T07:38:19.287Z,90.00
2022-12-07T07:39:19.237Z,90.00
2022-12-07T07:40:19.231Z,89.28
2022-12-07T07:41:19.183Z,89.17
2022-12-07T07:42:19.293Z,88.82
2022-12-07T07:43:19.187Z,88.71
2022-12-07T07:44:19.149Z,88.09
2022-12-07T07:45:19.181Z,87.99
2022-12-07T07:46:19.262Z,88.16
2022-12-07T07:47:19.171Z,88.06
2022-12-07T07:48:19.119Z,88.46
2022-12-07T07:49:19.139Z,88.67
2022-12-07T07:50:19.159Z,88.88
2022-12-07T07:51:19.117Z,88.36
2022-12-07T07:52:19.099Z,88.46
2022-12-07T07:53:19.120Z,89.09
2022-12-07T07:54:19.048Z,89.40
2022-12-07T07:55:20.009Z,89.29
2022-12-07T07:56:19.063Z,89.40
2022-12-07T07:57:19.028Z,88.98
2022-12-07T07:58:19.065Z,87.33
2022-12-07T07:59:19.035Z,85.32
2022-12-07T08:00:19.002Z,84.39
2022-12-07T08:01:19.051Z,84.70
2022-12-07T08:02:18.984Z,85.22
2022-12-07T08:03:18.998Z,84.77
2022-12-07T08:04:19.075Z,84.56
2022-12-07T08:05:19.015Z,86.21
2022-12-07T08:06:18.965Z,88.28
2022-12-07T08:07:18.991Z,89.32
2022-12-07T08:08:18.974Z,89.73
2022-12-07T08:09:18.894Z,90.35
2022-12-07T08:10:18.880Z,91.07
2022-12-07T08:11:18.926Z,90.45
2022-12-07T08:12:18.880Z,90.66
2022-12-07T08:13:18.857Z,90.14
2022-12-07T08:14:18.828Z,88.70
2022-12-07T08:15:18.881Z,86.52
2022-12-07T08:16:18.850Z,86.01
2022-12-07T08:17:18.861Z,86.73
2022-12-07T08:18:18.801Z,86.21
2022-12-07T08:19:18.878Z,85.08
2022-12-07T08:20:18.789Z,84.77
2022-12-07T08:21:18.797Z,85.49
2022-12-07T08:22:18.765Z,85.49
2022-12-07T08:23:18.783Z,83.84
2022-12-07T08:24:18.792Z,82.70
2022-12-07T08:25:18.750Z,82.50
2022-12-07T08:26:18.760Z,82.50
2022-12-07T08:27:19.680Z,82.60
2022-12-07T08:28:18.803Z,84.15
2022-12-07T08:29:18.793Z,82.60
2022-12-07T08:30:18.676Z,82.18
2022-12-07T08:31:18.837Z,82.39
2022-12-07T08:32:18.630Z,82.60
2022-12-07T08:33:18.694Z,82.18
2022-12-07T08:34:18.614Z,81.46
2022-12-07T08:35:18.613Z,80.94
2022-12-07T08:36:18.605Z,81.05
2022-12-07T08:37:18.716Z,80.84
2022-12-07T08:38:19.723Z,81.25
2022-12-07T08:39:33.901Z,81.32
2022-12-07T08:40:18.620Z,81.11
2022-12-07T08:41:18.576Z,81.52
2022-12-07T08:42:18.578Z,82.56
2022-12-07T08:43:18.578Z,83.39
2022-12-07T08:44:18.547Z,83.80
2022-12-07T08:45:24.965Z,83.18
2022-12-07T08:46:18.603Z,82.76
2022-12-07T08:47:18.526Z,82.97
2022-12-07T08:48:18.520Z,83.90
2022-12-07T08:49:18.442Z,84.63
2022-12-07T08:50:18.440Z,85.14
2022-12-07T08:51:18.519Z,85.14
2022-12-07T08:52:18.400Z,85.45
2022-12-07T08:53:18.596Z,85.66
2022-12-07T08:54:18.506Z,85.76
2022-12-07T08:55:18.388Z,86.07
2022-12-07T08:56:18.403Z,85.97
2022-12-07T08:57:18.676Z,85.66
2022-12-07T08:58:18.362Z,85.52
2022-12-07T08:59:18.375Z,85.52
2022-12-07T09:00:18.311Z,84.48
2022-12-07T09:01:18.345Z,83.65
2022-12-07T09:02:18.346Z,83.62
2022-12-07T09:03:18.295Z,83.00
2022-12-07T09:04:18.282Z,82.28
2022-12-07T09:05:18.266Z,82.79
2022-12-07T09:06:18.492Z,81.56
2022-12-07T09:07:18.361Z,80.46
2022-12-07T09:08:18.317Z,80.87
2022-12-07T09:09:18.253Z,81.07
2022-12-07T09:10:18.207Z,80.97
2022-12-07T09:11:18.238Z,78.91
2022-12-07T09:12:18.215Z,77.98
2022-12-07T09:13:18.183Z,77.98
2022-12-07T09:14:18.220Z,76.73
2022-12-07T09:15:18.168Z,75.81
2022-12-07T09:16:18.219Z,75.70
2022-12-07T09:17:18.185Z,75.39
2022-12-07T09:18:18.695Z,75.81
2022-12-07T09:19:18.160Z,76.64
2022-12-07T09:20:20.136Z,77.15
2022-12-07T09:21:18.203Z,77.36
2022-12-07T09:22:18.159Z,78.70
2022-12-07T09:23:18.124Z,79.11
2022-12-07T09:24:18.162Z,78.91
2022-12-07T09:25:18.078Z,79.63
2022-12-07T09:26:18.075Z,80.56
2022-12-07T09:27:18.132Z,81.28
2022-12-07T09:28:18.036Z,81.38
2022-12-07T09:29:18.000Z,81.59
2022-12-07T09:30:18.017Z,82.42
2022-12-07T09:31:26.132Z,82.42
2022-12-07T09:32:18.025Z,82.00
2022-12-07T09:33:18.008Z,80.97
2022-12-07T09:34:18.102Z,81.07
2022-12-07T09:35:17.971Z,81.80
2022-12-07T09:36:17.920Z,82.10
2022-12-07T09:37:17.953Z,81.90
2022-12-07T09:38:17.888Z,82.00
2022-12-07T09:39:17.912Z,82.10
2022-12-07T09:40:17.911Z,81.90
2022-12-07T09:41:17.873Z,82.07
2022-12-07T09:42:18.001Z,82.17
2022-12-07T09:43:17.997Z,82.48
2022-12-07T09:44:17.868Z,82.89
2022-12-07T09:45:17.877Z,83.10
2022-12-07T09:46:17.993Z,82.38
2022-12-07T09:47:17.859Z,80.93
2022-12-07T09:48:17.809Z,80.73
2022-12-07T09:49:18.644Z,80.52
2022-12-07T09:50:17.819Z,80.79
2022-12-07T09:51:22.761Z,80.79
2022-12-07T09:52:17.927Z,80.48
2022-12-07T09:53:17.773Z,80.28
2022-12-07T09:54:17.727Z,79.66
2022-12-07T09:55:17.770Z,80.79
2022-12-07T09:56:17.686Z,81.00
2022-12-07T09:57:17.739Z,81.00
2022-12-07T09:58:17.756Z,80.69
2022-12-07T09:59:17.666Z,80.07
2022-12-07T10:00:18.671Z,80.28
2022-12-07T10:01:17.742Z,80.90
2022-12-07T10:02:17.687Z,80.79
2022-12-07T10:03:17.650Z,81.31
2022-12-07T10:04:17.727Z,81.93
2022-12-07T10:05:23.624Z,82.14
2022-12-07T10:06:17.580Z,81.72
2022-12-07T10:07:17.641Z,76.35
2022-12-07T10:08:17.688Z,74.26
2022-12-07T10:09:17.594Z,73.95
2022-12-07T10:10:17.527Z,74.36
2022-12-07T10:11:17.567Z,73.12
2022-12-07T10:12:17.509Z,71.89
2022-12-07T10:13:17.531Z,71.99
2022-12-07T10:14:17.547Z,70.92
2022-12-07T10:15:17.490Z,70.72
2022-12-07T10:16:18.158Z,71.44
2022-12-07T10:17:18.000Z,70.92
2022-12-07T10:18:17.434Z,69.69
2022-12-07T10:19:17.445Z,68.96
2022-12-07T10:20:17.478Z,69.38
2022-12-07T10:21:17.469Z,71.13
2022-12-07T10:22:17.435Z,71.13
2022-12-07T10:23:17.396Z,70.62
2022-12-07T10:24:17.366Z,70.92
2022-12-07T10:25:17.393Z,70.31
2022-12-07T10:26:17.374Z,70.20
2022-12-07T10:27:17.348Z,72.54
2022-12-07T10:28:17.377Z,78.00
2022-12-07T10:29:17.360Z,80.93
2022-12-07T10:30:17.323Z,82.57
2022-12-07T10:31:17.394Z,83.85
2022-12-07T10:32:17.350Z,84.16
2022-12-07T10:33:17.356Z,84.09
2022-12-07T10:34:17.298Z,83.99
2022-12-07T10:35:17.267Z,84.09
2022-12-07T10:36:17.266Z,84.61
2022-12-07T10:37:17.297Z,83.99
2022-12-07T10:38:17.294Z,83.48
2022-12-07T10:39:17.299Z,83.37
2022-12-07T10:40:17.210Z,83.89
2022-12-07T10:41:17.239Z,83.99
2022-12-07T10:42:17.226Z,82.96
2022-12-07T10:43:17.192Z,82.34
2022-12-07T10:44:17.223Z,80.79
2022-12-07T10:45:18.154Z,80.58
2022-12-07T10:46:17.344Z,80.90
2022-12-07T10:47:17.182Z,81.21
2022-12-07T10:48:17.164Z,81.10
2022-12-07T10:49:17.130Z,81.10
2022-12-07T10:50:17.100Z,81.10
2022-12-07T10:51:17.087Z,81.10
2022-12-07T10:52:17.101Z,81.41
2022-12-07T10:53:17.092Z,81.10
2022-12-07T10:54:17.110Z,79.86
2022-12-07T10:55:17.053Z,79.97
2022-12-07T10:56:17.014Z,79.97
2022-12-07T10:57:17.087Z,80.28
2022-12-07T10:58:16.999Z,80.32
2022-12-07T10:59:17.000Z,81.66
2022-12-07T11:00:16.993Z,84.59
2022-12-07T11:01:17.090Z,87.97
2022-12-07T11:02:22.148Z,91.30
2022-12-07T11:03:17.163Z,93.52
2022-12-07T11:04:17.031Z,95.07
2022-12-07T11:05:16.966Z,95.74
2022-12-07T11:06:16.979Z,95.84
2022-12-07T11:07:16.924Z,95.26
2022-12-07T11:08:16.981Z,94.95
2022-12-07T11:09:16.896Z,95.26
2022-12-07T11:10:16.870Z,95.20
2022-12-07T11:11:16.887Z,94.74
2022-12-07T11:12:16.851Z,95.16
2022-12-07T11:13:16.857Z,94.95
2022-12-07T11:14:16.844Z,92.74
2022-12-07T11:15:16.824Z,91.70
2022-12-07T11:16:16.869Z,91.97
2022-12-07T11:17:16.915Z,92.80
2022-12-07T11:18:17.663Z,93.68
2022-12-07T11:19:16.884Z,94.51
2022-12-07T11:20:16.824Z,94.62
2022-12-07T11:21:16.783Z,94.93
2022-12-07T11:22:16.834Z,95.34
2022-12-07T11:23:16.812Z,95.19
2022-12-07T11:24:16.866Z,95.29
2022-12-07T11:25:16.714Z,95.40
2022-12-07T11:26:17.147Z,95.61
2022-12-07T11:27:16.752Z,95.81
2022-12-07T11:28:16.731Z,95.81
2022-12-07T11:29:16.771Z,95.50
2022-12-07T11:30:17.903Z,95.19
2022-12-07T11:31:16.686Z,95.15
2022-12-07T11:32:16.779Z,94.53
2022-12-07T11:33:16.656Z,94.32
2022-12-07T11:34:16.639Z,94.22
2022-12-07T11:35:16.631Z,94.22
2022-12-07T11:36:16.842Z,94.32
2022-12-07T11:37:16.681Z,94.32
2022-12-07T11:38:16.589Z,94.12
2022-12-07T11:39:16.602Z,93.18
2022-12-07T11:40:16.682Z,91.22
2022-12-07T11:41:16.574Z,91.26
2022-12-07T11:42:16.639Z,90.64
2022-12-07T11:43:16.600Z,91.26
2022-12-07T11:44:16.777Z,92.30
2022-12-07T11:45:16.503Z,92.40
2022-12-07T11:46:16.941Z,92.50
2022-12-07T11:47:16.468Z,92.34
2022-12-07T11:48:16.483Z,92.40
2022-12-07T11:49:16.446Z,92.50
2022-12-07T11:50:16.682Z,92.19
2022-12-07T11:51:16.447Z,93.02
2022-12-07T11:52:16.423Z,93.43
2022-12-07T11:53:16.404Z,93.64
2022-12-07T11:54:16.430Z,93.91
2022-12-07T11:55:16.407Z,93.80
2022-12-07T11:56:16.397Z,93.70
2022-12-07T11:57:19.991Z,92.77
2022-12-07T11:58:16.585Z,92.15
2022-12-07T11:59:16.403Z,91.32
2022-12-07T12:00:16.473Z,91.42
2022-12-07T12:01:16.360Z,91.11
2022-12-07T12:02:16.427Z,90.66
2022-12-07T12:03:16.848Z,89.94
2022-12-07T12:04:16.425Z,89.22
2022-12-07T12:05:16.382Z,88.90
2022-12-07T12:06:16.427Z,89.32
2022-12-07T12:10:16.403Z,92.07
2022-12-07T12:11:18.123Z,92.38
2022-12-07T12:15:16.263Z,90.41
2022-12-07T12:16:16.244Z,90.52
2022-12-07T12:17:16.306Z,90.72
2022-12-07T12:18:16.225Z,90.31
2022-12-07T12:19:16.096Z,89.38
2022-12-07T12:20:16.094Z,88.65
2022-12-07T12:21:19.481Z,87.93
2022-12-07T12:22:16.103Z,87.52
2022-12-07T12:23:16.085Z,86.28
2022-12-07T12:24:16.119Z,86.07
2022-12-07T12:25:16.025Z,86.59
2022-12-07T12:26:16.079Z,86.59
2022-12-07T12:27:15.998Z,84.94
2022-12-07T12:28:16.034Z,83.70
2022-12-07T12:29:15.979Z,83.80
2022-12-07T12:30:15.977Z,83.86
2022-12-07T12:31:15.975Z,84.79
2022-12-07T12:32:16.130Z,84.79
2022-12-07T12:33:15.963Z,84.00
2022-12-07T12:34:15.947Z,82.56
2022-12-07T12:35:15.918Z,82.04
2022-12-07T12:36:16.001Z,82.76
2022-12-07T12:37:15.877Z,82.45
2022-12-07T12:38:15.987Z,82.45
2022-12-07T12:39:15.863Z,81.01
2022-12-07T12:40:15.912Z,81.01
2022-12-07T12:41:15.853Z,81.84
2022-12-07T12:42:15.844Z,81.84
2022-12-07T12:44:54.511Z,82.31
2022-12-07T12:45:55.498Z,82.00
2022-12-07T12:46:56.138Z,81.18
2022-12-07T12:47:55.423Z,80.76
2022-12-07T12:48:55.545Z,81.38
2022-12-07T12:49:55.438Z,80.66
2022-12-07T12:50:55.421Z,80.46
2022-12-07T12:51:55.466Z,80.35
2022-12-07T12:52:55.420Z,81.28
2022-12-07T12:53:55.411Z,81.38
2022-12-07T12:54:55.405Z,79.83
2022-12-07T12:55:55.396Z,79.83
2022-12-07T12:56:55.471Z,80.56
2022-12-07T12:57:56.207Z,80.87
2022-12-07T12:58:55.374Z,80.56
2022-12-07T12:59:55.430Z,80.25
2022-12-07T13:00:55.333Z,80.25
2022-12-07T13:01:55.388Z,80.76